Ana Sayfa
METAR-TAF:

METAR-TAF

Havaalanları :

Krabi, Tayland

Enlem: 08-06-03N, Boylam: 098-59-05E, yükseklik: 25 m

Güncel hava durumu gözlemi

Rapor saat 04:00 UTC de 24 dakika önce yapıldı.
Rüzgar kuzeydoğudan 9 kt, kuzey ve doğu arasında değişken
Sıcaklık 29°C
Nem 66%
Basınç 1013 hPa
Görüş mesafesi 10 km veya daha fazla
2000 ft yükseklikte parçalı bulutlu

METAR: VTSG 070400Z 05009KT 360V090 9999 SCT020 29/22 Q1013 NOSIG

Saat: 11:24 (04:24 UTC)

Tahmin

Rapor saat 23:00 UTC de 5 saat ve 24 dakika önce yapıldı.
Ayın 07'si saat 00 UTC'den ayın 07'si saat 24 UTC'ye kadar geçerli Tahmin
Rüzgar kuzeydoğudan 10 kt
Görüş mesafesi 10 km veya daha fazla
2000 ft yükseklikte az bulutlu
Dönüşüyor
ayın 07'si saat 21 UTC'den ayın 07'si saat 23 UTC'ye kadar
Görüş mesafesi: 5000 m
Pus

TAF: VTSG 062300Z 0700/0724 04010KT 9999 FEW020 BECMG 0721/0723 5000 BR

4.000'den fazla havaalanı için hava durumu gözlemleri ve tahminleri (METAR ve TAF raporları).

Kullanılabilir istasyonlar harita üzerinde sarı ve kırmızı noktalarla gösterilir.

İstasyonun adını görmek için fareyi noktanın üzerinde gezdirin.

Sonrasında hava gözlem ve tahminlerini görmek için tıklayın.

Haritayı değiştirmek için: yaklaştırmak için siyah artı işaretli yeşil düğmeye ve uzaklaştırmak için de eksi işaretli düğmeye hızla tıklayın; bitişik haritalar için yeşil okları kullanın.


METAR-TAF: